sensor_id;sensor_type;location;lat;lon;timestamp;temperature;humidity
6110;DHT22;3085;49.444;11.054;2023-03-01T00:00:04;1.30;99.90
6110;DHT22;3085;49.444;11.054;2023-03-01T00:02:32;1.10;99.90
6110;DHT22;3085;49.444;11.054;2023-03-01T00:05:00;1.00;99.90
6110;DHT22;3085;49.444;11.054;2023-03-01T00:07:27;0.90;99.90
6110;DHT22;3085;49.444;11.054;2023-03-01T00:09:53;0.90;99.90
6110;DHT22;3085;49.444;11.054;2023-03-01T00:12:20;0.90;99.90
6110;DHT22;3085;49.444;11.054;2023-03-01T00:14:47;0.90;99.90
6110;DHT22;3085;49.444;11.054;2023-03-01T00:17:14;0.90;99.90
6110;DHT22;3085;49.444;11.054;2023-03-01T00:19:41;0.90;99.90
6110;DHT22;3085;49.444;11.054;2023-03-01T00:22:09;0.90;99.90
6110;DHT22;3085;49.444;11.054;2023-03-01T00:24:36;0.90;99.90
6110;DHT22;3085;49.444;11.054;2023-03-01T00:27:02;0.80;99.90
6110;DHT22;3085;49.444;11.054;2023-03-01T00:29:29;0.90;99.90
6110;DHT22;3085;49.444;11.054;2023-03-01T00:31:56;0.80;99.90
6110;DHT22;3085;49.444;11.054;2023-03-01T00:34:23;1.40;99.90
6110;DHT22;3085;49.444;11.054;2023-03-01T00:36:49;0.90;99.90
6110;DHT22;3085;49.444;11.054;2023-03-01T00:39:17;0.90;99.90
6110;DHT22;3085;49.444;11.054;2023-03-01T00:41:44;1.00;99.90
6110;DHT22;3085;49.444;11.054;2023-03-01T00:44:11;0.90;99.90
6110;DHT22;3085;49.444;11.054;2023-03-01T00:46:38;0.80;99.90
6110;DHT22;3085;49.444;11.054;2023-03-01T00:49:05;0.90;99.90
6110;DHT22;3085;49.444;11.054;2023-03-01T00:51:32;0.90;99.90
6110;DHT22;3085;49.444;11.054;2023-03-01T00:54:01;0.90;99.90
6110;DHT22;3085;49.444;11.054;2023-03-01T00:56:30;0.80;99.90
6110;DHT22;3085;49.444;11.054;2023-03-01T00:58:57;0.80;99.90
6110;DHT22;3085;49.444;11.054;2023-03-01T01:01:26;0.70;99.90
6110;DHT22;3085;49.444;11.054;2023-03-01T01:03:57;0.80;99.90
6110;DHT22;3085;49.444;11.054;2023-03-01T01:06:26;0.80;99.90
6110;DHT22;3085;49.444;11.054;2023-03-01T01:08:54;0.80;99.90
6110;DHT22;3085;49.444;11.054;2023-03-01T01:11:22;0.60;99.90
6110;DHT22;3085;49.444;11.054;2023-03-01T01:13:51;0.70;99.90
6110;DHT22;3085;49.444;11.054;2023-03-01T01:16:19;0.70;99.90
6110;DHT22;3085;49.444;11.054;2023-03-01T01:18:47;0.80;99.90
6110;DHT22;3085;49.444;11.054;2023-03-01T01:21:16;0.80;99.90
6110;DHT22;3085;49.444;11.054;2023-03-01T01:23:44;0.70;99.90
6110;DHT22;3085;49.444;11.054;2023-03-01T01:26:14;0.70;99.90
6110;DHT22;3085;49.444;11.054;2023-03-01T01:28:41;0.60;99.90
6110;DHT22;3085;49.444;11.054;2023-03-01T01:31:09;0.60;99.90
6110;DHT22;3085;49.444;11.054;2023-03-01T01:33:36;0.60;99.90
6110;DHT22;3085;49.444;11.054;2023-03-01T01:36:04;0.50;99.90
6110;DHT22;3085;49.444;11.054;2023-03-01T01:38:31;0.50;99.90
6110;DHT22;3085;49.444;11.054;2023-03-01T01:40:58;0.50;99.90
6110;DHT22;3085;49.444;11.054;2023-03-01T01:43:27;0.50;99.90
6110;DHT22;3085;49.444;11.054;2023-03-01T01:45:55;1.20;99.90
6110;DHT22;3085;49.444;11.054;2023-03-01T01:48:30;1.30;99.90
6110;DHT22;3085;49.444;11.054;2023-03-01T01:51:06;0.40;99.90
6110;DHT22;3085;49.444;11.054;2023-03-01T01:53:34;0.70;99.90
6110;DHT22;3085;49.444;11.054;2023-03-01T01:56:02;0.40;99.90
6110;DHT22;3085;49.444;11.054;2023-03-01T01:58:30;0.30;99.90
6110;DHT22;3085;49.444;11.054;2023-03-01T02:00:57;0.30;99.90
6110;DHT22;3085;49.444;11.054;2023-03-01T02:03:30;0.30;99.90
6110;DHT22;3085;49.444;11.054;2023-03-01T02:06:03;0.40;99.90
6110;DHT22;3085;49.444;11.054;2023-03-01T02:08:35;0.40;99.90
6110;DHT22;3085;49.444;11.054;2023-03-01T02:11:04;0.40;99.90
6110;DHT22;3085;49.444;11.054;2023-03-01T02:13:33;0.30;99.90
6110;DHT22;3085;49.444;11.054;2023-03-01T02:16:03;0.30;99.90
6110;DHT22;3085;49.444;11.054;2023-03-01T02:18:31;0.30;99.90
6110;DHT22;3085;49.444;11.054;2023-03-01T02:21:19;0.40;99.90
6110;DHT22;3085;49.444;11.054;2023-03-01T02:23:50;0.40;99.90
6110;DHT22;3085;49.444;11.054;2023-03-01T02:26:22;0.30;99.90
6110;DHT22;3085;49.444;11.054;2023-03-01T02:28:52;0.80;99.90
6110;DHT22;3085;49.444;11.054;2023-03-01T02:31:20;0.40;99.90
6110;DHT22;3085;49.444;11.054;2023-03-01T02:34:07;0.30;99.90
6110;DHT22;3085;49.444;11.054;2023-03-01T02:36:37;0.40;99.90
6110;DHT22;3085;49.444;11.054;2023-03-01T02:39:06;0.50;99.90
6110;DHT22;3085;49.444;11.054;2023-03-01T02:41:42;0.50;99.90
6110;DHT22;3085;49.444;11.054;2023-03-01T02:44:11;0.50;99.90
6110;DHT22;3085;49.444;11.054;2023-03-01T02:46:43;0.70;99.90
6110;DHT22;3085;49.444;11.054;2023-03-01T02:49:19;0.40;99.90
6110;DHT22;3085;49.444;11.054;2023-03-01T02:54:40;0.40;99.90
6110;DHT22;3085;49.444;11.054;2023-03-01T02:57:07;0.30;99.90
6110;DHT22;3085;49.444;11.054;2023-03-01T02:59:37;0.40;99.90
6110;DHT22;3085;49.444;11.054;2023-03-01T03:02:06;0.60;99.90
6110;DHT22;3085;49.444;11.054;2023-03-01T03:04:33;0.40;99.90
6110;DHT22;3085;49.444;11.054;2023-03-01T03:07:00;0.50;99.90
6110;DHT22;3085;49.444;11.054;2023-03-01T03:09:27;1.50;99.90
6110;DHT22;3085;49.444;11.054;2023-03-01T03:11:53;0.40;99.90
6110;DHT22;3085;49.444;11.054;2023-03-01T03:14:20;0.30;99.90
6110;DHT22;3085;49.444;11.054;2023-03-01T03:16:50;0.40;99.90
6110;DHT22;3085;49.444;11.054;2023-03-01T03:19:18;0.60;99.90
6110;DHT22;3085;49.444;11.054;2023-03-01T03:21:45;0.30;99.90
6110;DHT22;3085;49.444;11.054;2023-03-01T03:24:12;0.40;99.90
6110;DHT22;3085;49.444;11.054;2023-03-01T03:26:39;0.30;99.90
6110;DHT22;3085;49.444;11.054;2023-03-01T03:29:06;0.40;99.90
6110;DHT22;3085;49.444;11.054;2023-03-01T03:31:33;0.30;99.90
6110;DHT22;3085;49.444;11.054;2023-03-01T03:34:01;0.30;99.90
6110;DHT22;3085;49.444;11.054;2023-03-01T03:36:28;0.40;99.90
6110;DHT22;3085;49.444;11.054;2023-03-01T03:38:55;0.30;99.90
6110;DHT22;3085;49.444;11.054;2023-03-01T03:41:22;0.20;99.90
6110;DHT22;3085;49.444;11.054;2023-03-01T03:43:49;0.30;99.90
6110;DHT22;3085;49.444;11.054;2023-03-01T03:46:16;0.40;99.90
6110;DHT22;3085;49.444;11.054;2023-03-01T03:48:44;0.30;99.90
6110;DHT22;3085;49.444;11.054;2023-03-01T03:51:14;0.30;99.90
6110;DHT22;3085;49.444;11.054;2023-03-01T03:53:41;0.30;99.90
6110;DHT22;3085;49.444;11.054;2023-03-01T03:56:08;0.20;99.90
6110;DHT22;3085;49.444;11.054;2023-03-01T03:58:35;0.30;99.90
6110;DHT22;3085;49.444;11.054;2023-03-01T04:01:02;0.30;99.90
6110;DHT22;3085;49.444;11.054;2023-03-01T04:03:30;0.30;99.90
6110;DHT22;3085;49.444;11.054;2023-03-01T04:05:58;0.30;99.90
6110;DHT22;3085;49.444;11.054;2023-03-01T04:08:27;0.30;99.90
6110;DHT22;3085;49.444;11.054;2023-03-01T04:10:58;1.50;99.90
6110;DHT22;3085;49.444;11.054;2023-03-01T04:13:26;0.40;99.90
6110;DHT22;3085;49.444;11.054;2023-03-01T04:15:53;0.40;99.90
6110;DHT22;3085;49.444;11.054;2023-03-01T04:18:22;0.30;99.90
6110;DHT22;3085;49.444;11.054;2023-03-01T04:20:50;0.30;99.90
6110;DHT22;3085;49.444;11.054;2023-03-01T04:23:21;0.10;99.90
6110;DHT22;3085;49.444;11.054;2023-03-01T04:25:51;0.10;99.90
6110;DHT22;3085;49.444;11.054;2023-03-01T04:28:22;0.10;99.90
6110;DHT22;3085;49.444;11.054;2023-03-01T04:30:51;0.10;99.90
6110;DHT22;3085;49.444;11.054;2023-03-01T04:33:18;0.20;99.90
6110;DHT22;3085;49.444;11.054;2023-03-01T04:35:45;0.20;99.90
6110;DHT22;3085;49.444;11.054;2023-03-01T04:38:15;0.20;99.90
6110;DHT22;3085;49.444;11.054;2023-03-01T04:40:41;0.30;99.90
6110;DHT22;3085;49.444;11.054;2023-03-01T04:43:11;0.20;99.90
6110;DHT22;3085;49.444;11.054;2023-03-01T04:45:40;0.10;99.90
6110;DHT22;3085;49.444;11.054;2023-03-01T04:48:07;0.10;99.90
6110;DHT22;3085;49.444;11.054;2023-03-01T04:50:34;0.10;99.90
6110;DHT22;3085;49.444;11.054;2023-03-01T04:53:02;0.20;99.90
6110;DHT22;3085;49.444;11.054;2023-03-01T04:55:29;0.10;99.90
6110;DHT22;3085;49.444;11.054;2023-03-01T04:57:56;0.20;99.90
6110;DHT22;3085;49.444;11.054;2023-03-01T05:00:26;0.20;99.90
6110;DHT22;3085;49.444;11.054;2023-03-01T05:02:54;0.20;99.90
6110;DHT22;3085;49.444;11.054;2023-03-01T05:05:24;0.20;99.90
6110;DHT22;3085;49.444;11.054;2023-03-01T05:07:55;0.20;99.90
6110;DHT22;3085;49.444;11.054;2023-03-01T05:10:23;0.10;99.90
6110;DHT22;3085;49.444;11.054;2023-03-01T05:12:50;0.10;99.90
6110;DHT22;3085;49.444;11.054;2023-03-01T05:15:18;2.20;99.90
6110;DHT22;3085;49.444;11.054;2023-03-01T05:17:48;0.50;99.90
6110;DHT22;3085;49.444;11.054;2023-03-01T05:20:15;0.00;99.90
6110;DHT22;3085;49.444;11.054;2023-03-01T05:22:43;-0.10;99.90
6110;DHT22;3085;49.444;11.054;2023-03-01T05:25:10;1.20;99.90
6110;DHT22;3085;49.444;11.054;2023-03-01T05:27:39;-0.10;99.90
6110;DHT22;3085;49.444;11.054;2023-03-01T05:30:08;-0.10;99.90
6110;DHT22;3085;49.444;11.054;2023-03-01T05:32:43;-0.20;99.90
6110;DHT22;3085;49.444;11.054;2023-03-01T05:35:13;-0.10;99.90
6110;DHT22;3085;49.444;11.054;2023-03-01T05:37:41;-0.10;99.90
6110;DHT22;3085;49.444;11.054;2023-03-01T05:40:11;0.40;99.90
6110;DHT22;3085;49.444;11.054;2023-03-01T05:42:42;0.00;99.90
6110;DHT22;3085;49.444;11.054;2023-03-01T05:45:09;0.00;99.90
6110;DHT22;3085;49.444;11.054;2023-03-01T05:47:38;0.00;99.90
6110;DHT22;3085;49.444;11.054;2023-03-01T05:50:05;0.10;99.90
6110;DHT22;3085;49.444;11.054;2023-03-01T05:52:34;0.00;99.90
6110;DHT22;3085;49.444;11.054;2023-03-01T05:55:01;0.10;99.90
6110;DHT22;3085;49.444;11.054;2023-03-01T05:57:28;0.00;99.90
6110;DHT22;3085;49.444;11.054;2023-03-01T05:59:55;0.10;99.90
6110;DHT22;3085;49.444;11.054;2023-03-01T06:02:22;-0.10;99.90
6110;DHT22;3085;49.444;11.054;2023-03-01T06:04:48;-0.10;99.90
6110;DHT22;3085;49.444;11.054;2023-03-01T06:07:15;0.00;99.90
6110;DHT22;3085;49.444;11.054;2023-03-01T06:09:43;-0.10;99.90
6110;DHT22;3085;49.444;11.054;2023-03-01T06:12:10;-0.10;99.90
6110;DHT22;3085;49.444;11.054;2023-03-01T06:14:37;-0.10;99.90
6110;DHT22;3085;49.444;11.054;2023-03-01T06:17:04;0.00;99.90
6110;DHT22;3085;49.444;11.054;2023-03-01T06:19:30;0.00;99.90
6110;DHT22;3085;49.444;11.054;2023-03-01T06:21:57;-0.20;99.90
6110;DHT22;3085;49.444;11.054;2023-03-01T06:24:24;-0.20;99.90
6110;DHT22;3085;49.444;11.054;2023-03-01T06:26:52;-0.10;99.90
6110;DHT22;3085;49.444;11.054;2023-03-01T06:29:19;-0.10;99.90
6110;DHT22;3085;49.444;11.054;2023-03-01T06:31:46;0.00;99.90
6110;DHT22;3085;49.444;11.054;2023-03-01T06:34:13;-0.10;99.90
6110;DHT22;3085;49.444;11.054;2023-03-01T06:36:39;-0.10;99.90
6110;DHT22;3085;49.444;11.054;2023-03-01T06:39:06;0.00;99.90
6110;DHT22;3085;49.444;11.054;2023-03-01T06:41:33;0.50;99.90
6110;DHT22;3085;49.444;11.054;2023-03-01T06:44:02;0.10;99.90
6110;DHT22;3085;49.444;11.054;2023-03-01T06:46:29;1.40;99.90
6110;DHT22;3085;49.444;11.054;2023-03-01T06:48:56;-0.10;99.90
6110;DHT22;3085;49.444;11.054;2023-03-01T06:51:23;0.40;99.90
6110;DHT22;3085;49.444;11.054;2023-03-01T06:53:50;0.40;99.90
6110;DHT22;3085;49.444;11.054;2023-03-01T06:56:17;-0.10;99.90
6110;DHT22;3085;49.444;11.054;2023-03-01T06:58:44;0.30;99.90
6110;DHT22;3085;49.444;11.054;2023-03-01T07:01:12;0.20;99.90
6110;DHT22;3085;49.444;11.054;2023-03-01T07:03:39;0.30;99.90
6110;DHT22;3085;49.444;11.054;2023-03-01T07:06:06;1.30;99.90
6110;DHT22;3085;49.444;11.054;2023-03-01T07:08:33;2.20;99.90
6110;DHT22;3085;49.444;11.054;2023-03-01T07:11:00;0.40;99.90
6110;DHT22;3085;49.444;11.054;2023-03-01T07:13:28;0.30;99.90
6110;DHT22;3085;49.444;11.054;2023-03-01T07:15:56;0.30;99.90
6110;DHT22;3085;49.444;11.054;2023-03-01T07:18:24;0.30;99.90
6110;DHT22;3085;49.444;11.054;2023-03-01T07:20:51;0.40;99.90
6110;DHT22;3085;49.444;11.054;2023-03-01T07:23:18;0.50;99.90
6110;DHT22;3085;49.444;11.054;2023-03-01T07:25:51;0.50;99.90
6110;DHT22;3085;49.444;11.054;2023-03-01T07:28:18;0.50;99.90
6110;DHT22;3085;49.444;11.054;2023-03-01T07:30:45;0.50;99.90
6110;DHT22;3085;49.444;11.054;2023-03-01T07:33:12;0.60;99.90
6110;DHT22;3085;49.444;11.054;2023-03-01T07:35:42;1.50;99.90
6110;DHT22;3085;49.444;11.054;2023-03-01T07:38:09;0.60;99.90
6110;DHT22;3085;49.444;11.054;2023-03-01T07:40:36;0.70;99.90
6110;DHT22;3085;49.444;11.054;2023-03-01T07:43:06;0.70;99.90
6110;DHT22;3085;49.444;11.054;2023-03-01T07:45:33;2.00;99.90
6110;DHT22;3085;49.444;11.054;2023-03-01T07:48:00;0.90;99.90
6110;DHT22;3085;49.444;11.054;2023-03-01T07:50:27;0.90;99.90
6110;DHT22;3085;49.444;11.054;2023-03-01T07:52:56;2.10;99.90
6110;DHT22;3085;49.444;11.054;2023-03-01T07:55:23;0.60;99.90
6110;DHT22;3085;49.444;11.054;2023-03-01T07:57:50;0.90;99.90
6110;DHT22;3085;49.444;11.054;2023-03-01T08:00:18;1.00;99.90
6110;DHT22;3085;49.444;11.054;2023-03-01T08:02:45;1.10;99.90
6110;DHT22;3085;49.444;11.054;2023-03-01T08:05:12;1.10;99.90
6110;DHT22;3085;49.444;11.054;2023-03-01T08:07:39;1.20;99.90
6110;DHT22;3085;49.444;11.054;2023-03-01T08:10:11;1.30;99.90
6110;DHT22;3085;49.444;11.054;2023-03-01T08:12:38;1.30;99.90
6110;DHT22;3085;49.444;11.054;2023-03-01T08:15:06;1.30;99.90
6110;DHT22;3085;49.444;11.054;2023-03-01T08:17:33;1.30;99.90
6110;DHT22;3085;49.444;11.054;2023-03-01T08:20:00;2.00;99.90
6110;DHT22;3085;49.444;11.054;2023-03-01T08:22:28;1.50;99.90
6110;DHT22;3085;49.444;11.054;2023-03-01T08:24:55;1.50;99.90
6110;DHT22;3085;49.444;11.054;2023-03-01T08:27:24;1.60;99.90
6110;DHT22;3085;49.444;11.054;2023-03-01T08:29:51;1.80;99.90
6110;DHT22;3085;49.444;11.054;2023-03-01T08:32:18;3.40;99.90
6110;DHT22;3085;49.444;11.054;2023-03-01T08:34:46;1.80;99.90
6110;DHT22;3085;49.444;11.054;2023-03-01T08:37:13;2.10;99.90
6110;DHT22;3085;49.444;11.054;2023-03-01T08:39:40;1.90;99.90
6110;DHT22;3085;49.444;11.054;2023-03-01T08:42:07;1.90;99.90
6110;DHT22;3085;49.444;11.054;2023-03-01T08:44:35;1.90;99.90
6110;DHT22;3085;49.444;11.054;2023-03-01T08:47:02;2.00;99.90
6110;DHT22;3085;49.444;11.054;2023-03-01T08:49:30;2.20;99.90
6110;DHT22;3085;49.444;11.054;2023-03-01T08:51:58;2.30;99.90
6110;DHT22;3085;49.444;11.054;2023-03-01T08:54:25;2.20;99.90
6110;DHT22;3085;49.444;11.054;2023-03-01T08:56:51;2.30;99.90
6110;DHT22;3085;49.444;11.054;2023-03-01T08:59:18;2.40;99.90
6110;DHT22;3085;49.444;11.054;2023-03-01T09:01:47;2.40;99.90
6110;DHT22;3085;49.444;11.054;2023-03-01T09:04:15;2.50;99.90
6110;DHT22;3085;49.444;11.054;2023-03-01T09:06:42;2.60;99.90
6110;DHT22;3085;49.444;11.054;2023-03-01T09:09:13;2.70;99.90
6110;DHT22;3085;49.444;11.054;2023-03-01T09:11:41;2.90;99.90
6110;DHT22;3085;49.444;11.054;2023-03-01T09:14:08;3.00;99.90
6110;DHT22;3085;49.444;11.054;2023-03-01T09:16:35;3.00;99.90
6110;DHT22;3085;49.444;11.054;2023-03-01T09:19:04;3.20;99.90
6110;DHT22;3085;49.444;11.054;2023-03-01T09:21:31;3.30;99.90
6110;DHT22;3085;49.444;11.054;2023-03-01T09:23:58;3.50;99.90
6110;DHT22;3085;49.444;11.054;2023-03-01T09:26:25;3.40;99.90
6110;DHT22;3085;49.444;11.054;2023-03-01T09:28:53;3.60;99.90
6110;DHT22;3085;49.444;11.054;2023-03-01T09:31:22;3.60;99.90
6110;DHT22;3085;49.444;11.054;2023-03-01T09:33:50;3.70;99.90
6110;DHT22;3085;49.444;11.054;2023-03-01T09:36:20;3.80;99.90
6110;DHT22;3085;49.444;11.054;2023-03-01T09:38:48;3.80;99.90
6110;DHT22;3085;49.444;11.054;2023-03-01T09:41:26;3.90;99.90
6110;DHT22;3085;49.444;11.054;2023-03-01T09:44:00;3.80;99.90
6110;DHT22;3085;49.444;11.054;2023-03-01T09:46:32;4.20;99.90
6110;DHT22;3085;49.444;11.054;2023-03-01T09:49:07;3.90;99.90
6110;DHT22;3085;49.444;11.054;2023-03-01T09:51:38;3.90;99.90
6110;DHT22;3085;49.444;11.054;2023-03-01T09:54:06;4.00;99.90
6110;DHT22;3085;49.444;11.054;2023-03-01T09:56:38;4.30;99.90
6110;DHT22;3085;49.444;11.054;2023-03-01T09:59:15;4.30;99.90
6110;DHT22;3085;49.444;11.054;2023-03-01T10:01:48;4.30;99.90
6110;DHT22;3085;49.444;11.054;2023-03-01T10:04:35;4.50;99.90
6110;DHT22;3085;49.444;11.054;2023-03-01T10:07:17;5.30;99.90
6110;DHT22;3085;49.444;11.054;2023-03-01T10:09:48;4.30;99.90
6110;DHT22;3085;49.444;11.054;2023-03-01T10:12:17;4.40;99.90
6110;DHT22;3085;49.444;11.054;2023-03-01T10:14:51;4.50;99.90
6110;DHT22;3085;49.444;11.054;2023-03-01T10:17:27;4.50;99.90
6110;DHT22;3085;49.444;11.054;2023-03-01T10:22:49;5.20;99.90
6110;DHT22;3085;49.444;11.054;2023-03-01T10:25:31;4.80;99.90
6110;DHT22;3085;49.444;11.054;2023-03-01T10:28:04;4.90;99.90
6110;DHT22;3085;49.444;11.054;2023-03-01T10:30:35;4.90;99.90
6110;DHT22;3085;49.444;11.054;2023-03-01T10:33:08;5.00;99.90
6110;DHT22;3085;49.444;11.054;2023-03-01T10:35:39;5.10;99.90
6110;DHT22;3085;49.444;11.054;2023-03-01T10:38:09;5.00;99.90
6110;DHT22;3085;49.444;11.054;2023-03-01T10:40:51;5.20;99.90
6110;DHT22;3085;49.444;11.054;2023-03-01T10:43:19;5.20;99.90
6110;DHT22;3085;49.444;11.054;2023-03-01T10:45:47;5.30;99.90
6110;DHT22;3085;49.444;11.054;2023-03-01T10:48:15;6.40;99.90
6110;DHT22;3085;49.444;11.054;2023-03-01T10:50:45;5.20;99.90
6110;DHT22;3085;49.444;11.054;2023-03-01T10:53:33;5.10;99.90
6110;DHT22;3085;49.444;11.054;2023-03-01T10:56:02;5.20;99.90
6110;DHT22;3085;49.444;11.054;2023-03-01T10:58:30;5.40;99.90
6110;DHT22;3085;49.444;11.054;2023-03-01T11:00:59;5.50;99.90
6110;DHT22;3085;49.444;11.054;2023-03-01T11:03:29;5.60;99.90
6110;DHT22;3085;49.444;11.054;2023-03-01T11:06:02;5.50;99.90
6110;DHT22;3085;49.444;11.054;2023-03-01T11:08:34;5.60;99.90
6110;DHT22;3085;49.444;11.054;2023-03-01T11:14:01;5.90;99.90
6110;DHT22;3085;49.444;11.054;2023-03-01T11:16:33;6.00;99.90
6110;DHT22;3085;49.444;11.054;2023-03-01T11:19:17;6.00;99.90
6110;DHT22;3085;49.444;11.054;2023-03-01T11:21:50;6.10;99.90
6110;DHT22;3085;49.444;11.054;2023-03-01T11:24:22;6.00;99.90
6110;DHT22;3085;49.444;11.054;2023-03-01T11:26:53;6.10;99.90
6110;DHT22;3085;49.444;11.054;2023-03-01T11:29:27;6.10;99.90
6110;DHT22;3085;49.444;11.054;2023-03-01T11:32:00;6.20;99.90
6110;DHT22;3085;49.444;11.054;2023-03-01T11:34:37;6.30;99.90
6110;DHT22;3085;49.444;11.054;2023-03-01T11:37:13;6.20;99.90
6110;DHT22;3085;49.444;11.054;2023-03-01T11:39:49;6.30;99.90
6110;DHT22;3085;49.444;11.054;2023-03-01T11:42:20;6.50;99.90
6110;DHT22;3085;49.444;11.054;2023-03-01T11:44:48;6.50;99.90
6110;DHT22;3085;49.444;11.054;2023-03-01T11:47:28;6.40;99.90
6110;DHT22;3085;49.444;11.054;2023-03-01T11:50:06;6.50;99.90
6110;DHT22;3085;49.444;11.054;2023-03-01T11:52:42;6.40;99.90
6110;DHT22;3085;49.444;11.054;2023-03-01T11:55:34;6.40;99.90
6110;DHT22;3085;49.444;11.054;2023-03-01T11:58:20;6.50;99.90
6110;DHT22;3085;49.444;11.054;2023-03-01T12:01:02;6.60;99.90
6110;DHT22;3085;49.444;11.054;2023-03-01T12:03:46;6.70;99.90
6110;DHT22;3085;49.444;11.054;2023-03-01T12:06:38;6.80;99.90
6110;DHT22;3085;49.444;11.054;2023-03-01T12:09:20;8.10;99.90
6110;DHT22;3085;49.444;11.054;2023-03-01T12:12:03;7.00;99.90
6110;DHT22;3085;49.444;11.054;2023-03-01T12:14:47;7.00;99.90
6110;DHT22;3085;49.444;11.054;2023-03-01T12:17:33;7.10;99.90
6110;DHT22;3085;49.444;11.054;2023-03-01T12:20:15;7.10;99.90
6110;DHT22;3085;49.444;11.054;2023-03-01T12:22:57;7.10;99.90
6110;DHT22;3085;49.444;11.054;2023-03-01T12:25:32;7.20;99.90
6110;DHT22;3085;49.444;11.054;2023-03-01T12:28:22;7.30;99.90
6110;DHT22;3085;49.444;11.054;2023-03-01T12:31:14;7.30;99.90
6110;DHT22;3085;49.444;11.054;2023-03-01T12:33:49;7.30;99.90
6110;DHT22;3085;49.444;11.054;2023-03-01T12:36:33;7.40;99.90
6110;DHT22;3085;49.444;11.054;2023-03-01T12:39:15;7.40;99.90
6110;DHT22;3085;49.444;11.054;2023-03-01T12:41:58;7.40;99.90
6110;DHT22;3085;49.444;11.054;2023-03-01T12:44:44;7.50;99.90
6110;DHT22;3085;49.444;11.054;2023-03-01T12:47:22;7.50;99.90
6110;DHT22;3085;49.444;11.054;2023-03-01T12:49:55;7.60;99.90
6110;DHT22;3085;49.444;11.054;2023-03-01T12:52:30;7.60;99.90
6110;DHT22;3085;49.444;11.054;2023-03-01T12:55:01;7.60;99.90
6110;DHT22;3085;49.444;11.054;2023-03-01T12:57:33;7.70;99.90
6110;DHT22;3085;49.444;11.054;2023-03-01T13:00:22;7.70;99.90
6110;DHT22;3085;49.444;11.054;2023-03-01T13:02:56;7.80;99.90
6110;DHT22;3085;49.444;11.054;2023-03-01T13:05:34;7.90;99.90
6110;DHT22;3085;49.444;11.054;2023-03-01T13:08:08;7.90;99.90
6110;DHT22;3085;49.444;11.054;2023-03-01T13:10:42;8.10;99.90
6110;DHT22;3085;49.444;11.054;2023-03-01T13:13:19;8.00;99.90
6110;DHT22;3085;49.444;11.054;2023-03-01T13:15:48;8.10;99.90
6110;DHT22;3085;49.444;11.054;2023-03-01T13:18:32;8.20;99.90
6110;DHT22;3085;49.444;11.054;2023-03-01T13:21:03;8.20;99.90
6110;DHT22;3085;49.444;11.054;2023-03-01T13:23:34;8.20;99.90
6110;DHT22;3085;49.444;11.054;2023-03-01T13:26:08;8.20;99.90
6110;DHT22;3085;49.444;11.054;2023-03-01T13:28:45;8.50;99.90
6110;DHT22;3085;49.444;11.054;2023-03-01T13:34:51;8.40;99.90
6110;DHT22;3085;49.444;11.054;2023-03-01T13:37:26;8.50;99.90
6110;DHT22;3085;49.444;11.054;2023-03-01T13:39:55;8.50;99.90
6110;DHT22;3085;49.444;11.054;2023-03-01T13:42:42;8.50;99.90
6110;DHT22;3085;49.444;11.054;2023-03-01T13:45:21;8.50;99.90
6110;DHT22;3085;49.444;11.054;2023-03-01T13:47:53;8.50;99.90
6110;DHT22;3085;49.444;11.054;2023-03-01T13:50:24;8.60;99.90
6110;DHT22;3085;49.444;11.054;2023-03-01T13:52:55;8.60;99.90
6110;DHT22;3085;49.444;11.054;2023-03-01T13:55:27;10.50;99.90
6110;DHT22;3085;49.444;11.054;2023-03-01T13:57:58;8.80;99.90
6110;DHT22;3085;49.444;11.054;2023-03-01T14:00:28;8.80;99.90
6110;DHT22;3085;49.444;11.054;2023-03-01T14:03:00;8.90;99.90
6110;DHT22;3085;49.444;11.054;2023-03-01T14:05:29;9.00;99.90
6110;DHT22;3085;49.444;11.054;2023-03-01T14:07:55;9.00;99.90
6110;DHT22;3085;49.444;11.054;2023-03-01T14:12:53;9.00;99.90
6110;DHT22;3085;49.444;11.054;2023-03-01T14:15:27;8.90;99.90
6110;DHT22;3085;49.444;11.054;2023-03-01T14:18:03;9.00;99.90
6110;DHT22;3085;49.444;11.054;2023-03-01T14:20:39;8.20;99.90
6110;DHT22;3085;49.444;11.054;2023-03-01T14:23:12;9.10;99.90
6110;DHT22;3085;49.444;11.054;2023-03-01T14:25:47;9.50;99.90
6110;DHT22;3085;49.444;11.054;2023-03-01T14:28:16;8.40;99.90
6110;DHT22;3085;49.444;11.054;2023-03-01T14:30:45;8.00;99.90
6110;DHT22;3085;49.444;11.054;2023-03-01T14:33:22;9.30;99.90
6110;DHT22;3085;49.444;11.054;2023-03-01T14:35:55;10.60;99.90
6110;DHT22;3085;49.444;11.054;2023-03-01T14:38:29;10.40;99.90
6110;DHT22;3085;49.444;11.054;2023-03-01T14:40:59;10.30;99.90
6110;DHT22;3085;49.444;11.054;2023-03-01T14:43:30;9.40;99.90
6110;DHT22;3085;49.444;11.054;2023-03-01T14:45:59;9.80;99.90
6110;DHT22;3085;49.444;11.054;2023-03-01T14:48:28;10.40;99.90
6110;DHT22;3085;49.444;11.054;2023-03-01T14:50:57;10.50;99.90
6110;DHT22;3085;49.444;11.054;2023-03-01T14:53:27;9.20;99.90
6110;DHT22;3085;49.444;11.054;2023-03-01T14:55:59;9.20;99.90
6110;DHT22;3085;49.444;11.054;2023-03-01T14:58:32;10.20;99.90
6110;DHT22;3085;49.444;11.054;2023-03-01T15:01:03;9.30;99.90
6110;DHT22;3085;49.444;11.054;2023-03-01T15:03:33;8.20;99.90
6110;DHT22;3085;49.444;11.054;2023-03-01T15:06:06;9.10;99.90
6110;DHT22;3085;49.444;11.054;2023-03-01T15:08:34;9.10;99.90
6110;DHT22;3085;49.444;11.054;2023-03-01T15:11:04;8.30;99.90
6110;DHT22;3085;49.444;11.054;2023-03-01T15:13:34;7.60;99.90
6110;DHT22;3085;49.444;11.054;2023-03-01T15:16:07;9.10;99.90
6110;DHT22;3085;49.444;11.054;2023-03-01T15:18:38;9.10;99.90
6110;DHT22;3085;49.444;11.054;2023-03-01T15:21:18;9.70;99.90
6110;DHT22;3085;49.444;11.054;2023-03-01T15:23:49;9.00;99.90
6110;DHT22;3085;49.444;11.054;2023-03-01T15:26:31;9.10;99.90
6110;DHT22;3085;49.444;11.054;2023-03-01T15:29:01;9.10;99.90
6110;DHT22;3085;49.444;11.054;2023-03-01T15:31:33;8.60;99.90
6110;DHT22;3085;49.444;11.054;2023-03-01T15:34:11;9.90;99.90
6110;DHT22;3085;49.444;11.054;2023-03-01T15:36:49;9.20;99.90
6110;DHT22;3085;49.444;11.054;2023-03-01T15:39:32;9.60;99.90
6110;DHT22;3085;49.444;11.054;2023-03-01T15:42:03;10.00;99.90
6110;DHT22;3085;49.444;11.054;2023-03-01T15:44:32;10.40;99.90
6110;DHT22;3085;49.444;11.054;2023-03-01T15:47:00;10.50;99.90
6110;DHT22;3085;49.444;11.054;2023-03-01T15:49:35;10.50;99.90
6110;DHT22;3085;49.444;11.054;2023-03-01T15:52:04;10.90;99.90
6110;DHT22;3085;49.444;11.054;2023-03-01T15:54:32;11.00;99.90
6110;DHT22;3085;49.444;11.054;2023-03-01T15:56:59;10.80;99.90
6110;DHT22;3085;49.444;11.054;2023-03-01T15:59:26;10.70;99.90
6110;DHT22;3085;49.444;11.054;2023-03-01T16:01:53;10.70;99.90
6110;DHT22;3085;49.444;11.054;2023-03-01T16:04:21;10.60;99.90
6110;DHT22;3085;49.444;11.054;2023-03-01T16:06:49;10.40;99.90
6110;DHT22;3085;49.444;11.054;2023-03-01T16:09:25;10.10;99.90
6110;DHT22;3085;49.444;11.054;2023-03-01T16:11:54;10.20;99.90
6110;DHT22;3085;49.444;11.054;2023-03-01T16:14:21;10.30;99.90
6110;DHT22;3085;49.444;11.054;2023-03-01T16:16:48;9.60;99.90
6110;DHT22;3085;49.444;11.054;2023-03-01T16:19:15;9.60;99.90
6110;DHT22;3085;49.444;11.054;2023-03-01T16:21:42;9.80;99.90
6110;DHT22;3085;49.444;11.054;2023-03-01T16:24:12;9.80;99.90
6110;DHT22;3085;49.444;11.054;2023-03-01T16:26:40;9.60;99.90
6110;DHT22;3085;49.444;11.054;2023-03-01T16:29:07;9.40;99.90
6110;DHT22;3085;49.444;11.054;2023-03-01T16:31:34;9.10;99.90
6110;DHT22;3085;49.444;11.054;2023-03-01T16:34:01;8.70;99.90